sensor_id;sensor_type;location;lat;lon;timestamp;temperature;humidity
49441;DHT22;35317;51.978;6.296;2023-05-17T00:00:27;8.70;97.00
49441;DHT22;35317;51.978;6.296;2023-05-17T00:05:28;8.60;97.10
49441;DHT22;35317;51.978;6.296;2023-05-17T00:10:29;8.60;97.30
49441;DHT22;35317;51.978;6.296;2023-05-17T00:15:30;8.60;97.50
49441;DHT22;35317;51.978;6.296;2023-05-17T00:20:31;8.60;97.60
49441;DHT22;35317;51.978;6.296;2023-05-17T00:25:31;8.60;97.70
49441;DHT22;35317;51.978;6.296;2023-05-17T00:30:32;8.60;97.80
49441;DHT22;35317;51.978;6.296;2023-05-17T00:35:33;8.60;97.90
49441;DHT22;35317;51.978;6.296;2023-05-17T00:40:34;8.60;98.00
49441;DHT22;35317;51.978;6.296;2023-05-17T00:45:35;8.60;98.20
49441;DHT22;35317;51.978;6.296;2023-05-17T00:50:35;8.60;98.30
49441;DHT22;35317;51.978;6.296;2023-05-17T00:55:36;8.60;98.40
49441;DHT22;35317;51.978;6.296;2023-05-17T01:00:37;8.60;98.50
49441;DHT22;35317;51.978;6.296;2023-05-17T01:05:38;8.50;98.60
49441;DHT22;35317;51.978;6.296;2023-05-17T01:10:48;8.50;98.60
49441;DHT22;35317;51.978;6.296;2023-05-17T01:16:05;8.40;98.70
49441;DHT22;35317;51.978;6.296;2023-05-17T01:26:53;8.30;98.80
49441;DHT22;35317;51.978;6.296;2023-05-17T01:31:56;8.30;98.90
49441;DHT22;35317;51.978;6.296;2023-05-17T01:36:58;8.20;99.00
49441;DHT22;35317;51.978;6.296;2023-05-17T01:42:06;8.10;99.00
49441;DHT22;35317;51.978;6.296;2023-05-17T01:52:39;8.00;99.20
49441;DHT22;35317;51.978;6.296;2023-05-17T01:57:55;8.10;99.40
49441;DHT22;35317;51.978;6.296;2023-05-17T02:02:56;8.20;99.50
49441;DHT22;35317;51.978;6.296;2023-05-17T02:07:57;8.20;99.50
49441;DHT22;35317;51.978;6.296;2023-05-17T02:12:57;8.30;99.50
49441;DHT22;35317;51.978;6.296;2023-05-17T02:17:58;8.50;99.60
49441;DHT22;35317;51.978;6.296;2023-05-17T02:22:59;8.60;99.70
49441;DHT22;35317;51.978;6.296;2023-05-17T02:28:00;8.70;99.70
49441;DHT22;35317;51.978;6.296;2023-05-17T02:33:00;8.90;99.90
49441;DHT22;35317;51.978;6.296;2023-05-17T02:38:01;9.00;99.90
49441;DHT22;35317;51.978;6.296;2023-05-17T02:43:02;9.20;99.90
49441;DHT22;35317;51.978;6.296;2023-05-17T02:48:03;9.30;99.90
49441;DHT22;35317;51.978;6.296;2023-05-17T02:53:04;9.40;99.90
49441;DHT22;35317;51.978;6.296;2023-05-17T02:58:05;9.50;99.90
49441;DHT22;35317;51.978;6.296;2023-05-17T03:03:06;9.60;99.90
49441;DHT22;35317;51.978;6.296;2023-05-17T03:08:06;9.70;99.90
49441;DHT22;35317;51.978;6.296;2023-05-17T03:13:07;9.80;99.90
49441;DHT22;35317;51.978;6.296;2023-05-17T03:18:08;9.80;99.90
49441;DHT22;35317;51.978;6.296;2023-05-17T03:23:09;9.70;99.90
49441;DHT22;35317;51.978;6.296;2023-05-17T03:28:10;9.70;99.90
49441;DHT22;35317;51.978;6.296;2023-05-17T03:33:10;9.60;99.90
49441;DHT22;35317;51.978;6.296;2023-05-17T03:38:11;9.60;99.90
49441;DHT22;35317;51.978;6.296;2023-05-17T03:43:12;9.50;99.90
49441;DHT22;35317;51.978;6.296;2023-05-17T03:48:13;9.50;99.90
49441;DHT22;35317;51.978;6.296;2023-05-17T03:53:14;9.50;99.90
49441;DHT22;35317;51.978;6.296;2023-05-17T03:58:15;9.40;99.90
49441;DHT22;35317;51.978;6.296;2023-05-17T04:03:15;9.30;99.90
49441;DHT22;35317;51.978;6.296;2023-05-17T04:08:16;9.20;99.90
49441;DHT22;35317;51.978;6.296;2023-05-17T04:13:17;9.10;99.90
49441;DHT22;35317;51.978;6.296;2023-05-17T04:18:18;9.00;99.90
49441;DHT22;35317;51.978;6.296;2023-05-17T04:23:18;8.90;99.90
49441;DHT22;35317;51.978;6.296;2023-05-17T04:28:19;8.90;99.90
49441;DHT22;35317;51.978;6.296;2023-05-17T04:33:21;9.00;99.90
49441;DHT22;35317;51.978;6.296;2023-05-17T04:38:23;9.00;99.90
49441;DHT22;35317;51.978;6.296;2023-05-17T04:43:24;9.00;99.90
49441;DHT22;35317;51.978;6.296;2023-05-17T04:48:25;9.00;99.90
49441;DHT22;35317;51.978;6.296;2023-05-17T04:53:30;9.00;99.90
49441;DHT22;35317;51.978;6.296;2023-05-17T04:58:31;9.00;99.90
49441;DHT22;35317;51.978;6.296;2023-05-17T05:03:32;9.10;99.90
49441;DHT22;35317;51.978;6.296;2023-05-17T05:08:33;9.10;99.90
49441;DHT22;35317;51.978;6.296;2023-05-17T05:13:34;9.20;99.90
49441;DHT22;35317;51.978;6.296;2023-05-17T05:18:37;9.30;99.90
49441;DHT22;35317;51.978;6.296;2023-05-17T05:23:38;9.30;99.90
49441;DHT22;35317;51.978;6.296;2023-05-17T05:28:39;9.40;99.90
49441;DHT22;35317;51.978;6.296;2023-05-17T05:33:39;9.50;99.90
49441;DHT22;35317;51.978;6.296;2023-05-17T05:38:40;9.60;99.90
49441;DHT22;35317;51.978;6.296;2023-05-17T05:43:41;9.70;99.90
49441;DHT22;35317;51.978;6.296;2023-05-17T05:48:42;9.80;99.90
49441;DHT22;35317;51.978;6.296;2023-05-17T05:53:44;9.90;99.90
49441;DHT22;35317;51.978;6.296;2023-05-17T05:58:44;10.00;99.90
49441;DHT22;35317;51.978;6.296;2023-05-17T06:03:45;10.10;99.90
49441;DHT22;35317;51.978;6.296;2023-05-17T06:08:46;10.20;99.90
49441;DHT22;35317;51.978;6.296;2023-05-17T06:13:47;10.30;99.90
49441;DHT22;35317;51.978;6.296;2023-05-17T06:18:48;10.50;99.90
49441;DHT22;35317;51.978;6.296;2023-05-17T06:23:48;10.60;99.60
49441;DHT22;35317;51.978;6.296;2023-05-17T06:28:49;10.70;99.40
49441;DHT22;35317;51.978;6.296;2023-05-17T06:33:50;10.80;99.30
49441;DHT22;35317;51.978;6.296;2023-05-17T06:38:52;11.00;99.00
49441;DHT22;35317;51.978;6.296;2023-05-17T06:43:52;11.20;98.60
49441;DHT22;35317;51.978;6.296;2023-05-17T06:48:53;11.40;98.40
49441;DHT22;35317;51.978;6.296;2023-05-17T06:53:54;11.60;98.20
49441;DHT22;35317;51.978;6.296;2023-05-17T06:58:55;12.00;97.90
49441;DHT22;35317;51.978;6.296;2023-05-17T07:03:55;12.30;97.40
49441;DHT22;35317;51.978;6.296;2023-05-17T07:08:56;12.50;96.80
49441;DHT22;35317;51.978;6.296;2023-05-17T07:13:57;12.50;96.50
49441;DHT22;35317;51.978;6.296;2023-05-17T07:18:58;12.50;96.00
49441;DHT22;35317;51.978;6.296;2023-05-17T07:24:00;12.50;95.70
49441;DHT22;35317;51.978;6.296;2023-05-17T07:29:00;12.60;95.60
49441;DHT22;35317;51.978;6.296;2023-05-17T07:34:01;12.80;95.00
49441;DHT22;35317;51.978;6.296;2023-05-17T07:39:02;13.00;94.40
49441;DHT22;35317;51.978;6.296;2023-05-17T07:44:04;13.10;94.00
49441;DHT22;35317;51.978;6.296;2023-05-17T07:49:05;13.20;93.50
49441;DHT22;35317;51.978;6.296;2023-05-17T07:54:06;13.30;92.80
49441;DHT22;35317;51.978;6.296;2023-05-17T07:59:07;13.30;92.50
49441;DHT22;35317;51.978;6.296;2023-05-17T08:04:08;13.40;92.10
49441;DHT22;35317;51.978;6.296;2023-05-17T08:09:08;13.40;91.90
49441;DHT22;35317;51.978;6.296;2023-05-17T08:14:16;13.60;91.50
49441;DHT22;35317;51.978;6.296;2023-05-17T08:19:17;13.70;90.30
49441;DHT22;35317;51.978;6.296;2023-05-17T08:24:18;13.80;90.00
49441;DHT22;35317;51.978;6.296;2023-05-17T08:29:19;13.90;89.00
49441;DHT22;35317;51.978;6.296;2023-05-17T08:34:20;14.20;87.90
49441;DHT22;35317;51.978;6.296;2023-05-17T08:39:21;14.30;87.20
49441;DHT22;35317;51.978;6.296;2023-05-17T08:44:22;14.50;86.20
49441;DHT22;35317;51.978;6.296;2023-05-17T08:49:24;14.50;85.10
49441;DHT22;35317;51.978;6.296;2023-05-17T08:54:27;14.60;84.70
49441;DHT22;35317;51.978;6.296;2023-05-17T08:59:28;14.80;84.20
49441;DHT22;35317;51.978;6.296;2023-05-17T09:04:33;14.60;82.50
49441;DHT22;35317;51.978;6.296;2023-05-17T09:09:33;14.70;82.40
49441;DHT22;35317;51.978;6.296;2023-05-17T09:14:34;14.70;81.60
49441;DHT22;35317;51.978;6.296;2023-05-17T09:19:42;14.70;80.60
49441;DHT22;35317;51.978;6.296;2023-05-17T09:24:46;14.90;79.90
49441;DHT22;35317;51.978;6.296;2023-05-17T09:29:47;15.40;77.80
49441;DHT22;35317;51.978;6.296;2023-05-17T09:34:48;15.30;75.60
49441;DHT22;35317;51.978;6.296;2023-05-17T09:39:49;15.20;76.20
49441;DHT22;35317;51.978;6.296;2023-05-17T09:44:52;15.40;75.40
49441;DHT22;35317;51.978;6.296;2023-05-17T09:49:58;15.50;73.70
49441;DHT22;35317;51.978;6.296;2023-05-17T09:55:02;15.70;72.20
49441;DHT22;35317;51.978;6.296;2023-05-17T10:00:05;15.70;72.20
49441;DHT22;35317;51.978;6.296;2023-05-17T10:05:13;16.00;70.90
49441;DHT22;35317;51.978;6.296;2023-05-17T10:10:14;16.30;70.20
49441;DHT22;35317;51.978;6.296;2023-05-17T10:15:17;16.60;69.00
49441;DHT22;35317;51.978;6.296;2023-05-17T10:20:20;16.80;68.50
49441;DHT22;35317;51.978;6.296;2023-05-17T10:25:21;17.10;66.40
49441;DHT22;35317;51.978;6.296;2023-05-17T10:30:22;17.00;65.10
49441;DHT22;35317;51.978;6.296;2023-05-17T10:35:23;17.00;65.30
49441;DHT22;35317;51.978;6.296;2023-05-17T10:40:29;17.20;64.70
49441;DHT22;35317;51.978;6.296;2023-05-17T10:45:30;17.60;64.20
49441;DHT22;35317;51.978;6.296;2023-05-17T10:50:31;17.60;63.00
49441;DHT22;35317;51.978;6.296;2023-05-17T10:55:42;17.60;62.50
49441;DHT22;35317;51.978;6.296;2023-05-17T11:00:46;17.90;62.20
49441;DHT22;35317;51.978;6.296;2023-05-17T11:11:12;17.90;59.50
49441;DHT22;35317;51.978;6.296;2023-05-17T11:16:14;18.10;60.00
49441;DHT22;35317;51.978;6.296;2023-05-17T11:21:17;18.30;59.60
49441;DHT22;35317;51.978;6.296;2023-05-17T11:26:36;18.30;60.00
49441;DHT22;35317;51.978;6.296;2023-05-17T11:31:43;18.20;59.10
49441;DHT22;35317;51.978;6.296;2023-05-17T11:36:52;18.00;59.50
49441;DHT22;35317;51.978;6.296;2023-05-17T11:41:54;17.80;59.50
49441;DHT22;35317;51.978;6.296;2023-05-17T11:47:06;17.80;59.10
49441;DHT22;35317;51.978;6.296;2023-05-17T11:52:10;18.10;59.10
49441;DHT22;35317;51.978;6.296;2023-05-17T11:57:12;17.80;58.70
49441;DHT22;35317;51.978;6.296;2023-05-17T12:02:28;17.60;58.90
49441;DHT22;35317;51.978;6.296;2023-05-17T12:07:30;17.70;58.40
49441;DHT22;35317;51.978;6.296;2023-05-17T12:12:31;18.10;58.40
49441;DHT22;35317;51.978;6.296;2023-05-17T12:17:36;18.20;58.00
49441;DHT22;35317;51.978;6.296;2023-05-17T12:22:54;18.30;58.40
49441;DHT22;35317;51.978;6.296;2023-05-17T12:28:14;18.80;56.90
49441;DHT22;35317;51.978;6.296;2023-05-17T12:33:15;18.70;56.40
49441;DHT22;35317;51.978;6.296;2023-05-17T12:38:17;18.80;56.20
49441;DHT22;35317;51.978;6.296;2023-05-17T12:43:21;18.70;55.60
49441;DHT22;35317;51.978;6.296;2023-05-17T12:48:24;18.70;55.60
49441;DHT22;35317;51.978;6.296;2023-05-17T12:53:34;18.70;55.10
49441;DHT22;35317;51.978;6.296;2023-05-17T12:58:36;18.90;54.50
49441;DHT22;35317;51.978;6.296;2023-05-17T13:03:37;19.10;53.60
49441;DHT22;35317;51.978;6.296;2023-05-17T13:08:38;19.30;53.50
49441;DHT22;35317;51.978;6.296;2023-05-17T13:13:40;19.60;53.30
49441;DHT22;35317;51.978;6.296;2023-05-17T13:18:48;20.10;52.70
49441;DHT22;35317;51.978;6.296;2023-05-17T13:23:49;20.10;51.80
49441;DHT22;35317;51.978;6.296;2023-05-17T13:28:50;20.10;51.10
49441;DHT22;35317;51.978;6.296;2023-05-17T13:33:51;20.10;50.60
49441;DHT22;35317;51.978;6.296;2023-05-17T13:38:52;19.90;50.10
49441;DHT22;35317;51.978;6.296;2023-05-17T13:43:53;19.80;50.20
49441;DHT22;35317;51.978;6.296;2023-05-17T13:48:53;19.80;50.20
49441;DHT22;35317;51.978;6.296;2023-05-17T13:53:54;19.90;50.00
49441;DHT22;35317;51.978;6.296;2023-05-17T13:58:55;20.00;50.40
49441;DHT22;35317;51.978;6.296;2023-05-17T14:03:56;20.10;49.40
49441;DHT22;35317;51.978;6.296;2023-05-17T14:08:57;20.10;49.80
49441;DHT22;35317;51.978;6.296;2023-05-17T14:14:00;20.30;49.30
49441;DHT22;35317;51.978;6.296;2023-05-17T14:19:00;20.20;48.90
49441;DHT22;35317;51.978;6.296;2023-05-17T14:24:01;20.10;48.70
49441;DHT22;35317;51.978;6.296;2023-05-17T14:29:02;20.10;48.40
49441;DHT22;35317;51.978;6.296;2023-05-17T14:34:05;20.10;48.60
49441;DHT22;35317;51.978;6.296;2023-05-17T14:39:05;20.30;48.60
49441;DHT22;35317;51.978;6.296;2023-05-17T14:44:06;20.60;48.50
49441;DHT22;35317;51.978;6.296;2023-05-17T14:49:07;20.90;48.40
49441;DHT22;35317;51.978;6.296;2023-05-17T14:54:08;21.20;48.40
49441;DHT22;35317;51.978;6.296;2023-05-17T14:59:09;21.40;47.90
49441;DHT22;35317;51.978;6.296;2023-05-17T15:04:10;21.60;47.30
49441;DHT22;35317;51.978;6.296;2023-05-17T15:09:11;21.70;47.40
49441;DHT22;35317;51.978;6.296;2023-05-17T15:14:13;21.70;46.20
49441;DHT22;35317;51.978;6.296;2023-05-17T15:19:20;21.70;46.70
49441;DHT22;35317;51.978;6.296;2023-05-17T15:24:21;22.00;46.60
49441;DHT22;35317;51.978;6.296;2023-05-17T15:29:22;21.90;46.40
49441;DHT22;35317;51.978;6.296;2023-05-17T15:34:23;21.60;46.80
49441;DHT22;35317;51.978;6.296;2023-05-17T15:39:26;21.20;47.00
49441;DHT22;35317;51.978;6.296;2023-05-17T15:44:27;21.20;46.90
49441;DHT22;35317;51.978;6.296;2023-05-17T15:49:28;21.40;46.70
49441;DHT22;35317;51.978;6.296;2023-05-17T15:54:29;21.30;46.60
49441;DHT22;35317;51.978;6.296;2023-05-17T15:59:30;21.30;46.40
49441;DHT22;35317;51.978;6.296;2023-05-17T16:04:32;21.20;45.80
49441;DHT22;35317;51.978;6.296;2023-05-17T16:09:32;20.90;46.40
49441;DHT22;35317;51.978;6.296;2023-05-17T16:14:33;20.70;46.70
49441;DHT22;35317;51.978;6.296;2023-05-17T16:19:35;20.40;47.10
49441;DHT22;35317;51.978;6.296;2023-05-17T16:24:35;20.30;47.10
49441;DHT22;35317;51.978;6.296;2023-05-17T16:29:36;20.30;46.80
49441;DHT22;35317;51.978;6.296;2023-05-17T16:34:39;20.20;47.00
49441;DHT22;35317;51.978;6.296;2023-05-17T16:39:40;20.30;46.80
49441;DHT22;35317;51.978;6.296;2023-05-17T16:44:41;20.40;46.80
49441;DHT22;35317;51.978;6.296;2023-05-17T16:49:42;20.40;46.60
49441;DHT22;35317;51.978;6.296;2023-05-17T16:54:43;20.20;46.80
49441;DHT22;35317;51.978;6.296;2023-05-17T16:59:44;19.90;47.70
49441;DHT22;35317;51.978;6.296;2023-05-17T17:04:45;19.70;47.50
49441;DHT22;35317;51.978;6.296;2023-05-17T17:09:45;19.40;47.60
49441;DHT22;35317;51.978;6.296;2023-05-17T17:14:46;18.90;47.90
49441;DHT22;35317;51.978;6.296;2023-05-17T17:19:47;18.50;48.40
49441;DHT22;35317;51.978;6.296;2023-05-17T17:24:48;18.10;48.90
49441;DHT22;35317;51.978;6.296;2023-05-17T17:29:48;17.70;49.70
49441;DHT22;35317;51.978;6.296;2023-05-17T17:34:49;17.40;50.70
49441;DHT22;35317;51.978;6.296;2023-05-17T17:39:51;17.10;51.30
49441;DHT22;35317;51.978;6.296;2023-05-17T17:44:53;16.90;51.80
49441;DHT22;35317;51.978;6.296;2023-05-17T17:49:54;16.70;52.20
49441;DHT22;35317;51.978;6.296;2023-05-17T17:54:54;16.60;52.60
49441;DHT22;35317;51.978;6.296;2023-05-17T17:59:55;16.40;53.00
49441;DHT22;35317;51.978;6.296;2023-05-17T18:04:57;16.20;53.40
49441;DHT22;35317;51.978;6.296;2023-05-17T18:09:58;16.00;53.80
49441;DHT22;35317;51.978;6.296;2023-05-17T18:15:01;15.70;54.30
49441;DHT22;35317;51.978;6.296;2023-05-17T18:20:02;15.50;54.80
49441;DHT22;35317;51.978;6.296;2023-05-17T18:25:04;15.20;55.30
49441;DHT22;35317;51.978;6.296;2023-05-17T18:30:07;15.00;55.70
49441;DHT22;35317;51.978;6.296;2023-05-17T18:35:09;14.80;56.20
49441;DHT22;35317;51.978;6.296;2023-05-17T18:40:10;14.60;56.60
49441;DHT22;35317;51.978;6.296;2023-05-17T18:45:11;14.40;57.10
49441;DHT22;35317;51.978;6.296;2023-05-17T18:50:12;14.20;57.60
49441;DHT22;35317;51.978;6.296;2023-05-17T18:55:13;14.00;58.10
49441;DHT22;35317;51.978;6.296;2023-05-17T19:00:14;13.80;58.40
49441;DHT22;35317;51.978;6.296;2023-05-17T19:05:15;13.60;59.00
49441;DHT22;35317;51.978;6.296;2023-05-17T19:10:16;13.40;59.30
49441;DHT22;35317;51.978;6.296;2023-05-17T19:15:18;13.20;59.70
49441;DHT22;35317;51.978;6.296;2023-05-17T19:20:19;13.00;60.10
49441;DHT22;35317;51.978;6.296;2023-05-17T19:25:20;12.80;60.40
49441;DHT22;35317;51.978;6.296;2023-05-17T19:30:21;12.70;60.90
49441;DHT22;35317;51.978;6.296;2023-05-17T19:35:22;12.50;61.30
49441;DHT22;35317;51.978;6.296;2023-05-17T19:40:23;12.30;61.80
49441;DHT22;35317;51.978;6.296;2023-05-17T19:45:24;12.10;62.20
49441;DHT22;35317;51.978;6.296;2023-05-17T19:50:25;12.00;62.70
49441;DHT22;35317;51.978;6.296;2023-05-17T19:55:25;11.80;63.10
49441;DHT22;35317;51.978;6.296;2023-05-17T20:00:29;11.60;63.60
49441;DHT22;35317;51.978;6.296;2023-05-17T20:05:32;11.50;63.90
49441;DHT22;35317;51.978;6.296;2023-05-17T20:10:33;11.40;64.40
49441;DHT22;35317;51.978;6.296;2023-05-17T20:15:34;11.20;64.80
49441;DHT22;35317;51.978;6.296;2023-05-17T20:20:35;11.10;65.20
49441;DHT22;35317;51.978;6.296;2023-05-17T20:25:36;11.00;65.60
49441;DHT22;35317;51.978;6.296;2023-05-17T20:30:40;10.90;65.80
49441;DHT22;35317;51.978;6.296;2023-05-17T20:35:43;10.70;66.20
49441;DHT22;35317;51.978;6.296;2023-05-17T20:40:43;10.70;66.50
49441;DHT22;35317;51.978;6.296;2023-05-17T20:45:44;10.50;66.90
49441;DHT22;35317;51.978;6.296;2023-05-17T20:50:45;10.40;67.40
49441;DHT22;35317;51.978;6.296;2023-05-17T20:55:46;10.20;67.70
49441;DHT22;35317;51.978;6.296;2023-05-17T21:00:48;10.10;68.20
49441;DHT22;35317;51.978;6.296;2023-05-17T21:05:49;10.00;68.40
49441;DHT22;35317;51.978;6.296;2023-05-17T21:10:51;9.90;68.80
49441;DHT22;35317;51.978;6.296;2023-05-17T21:15:53;9.80;69.10
49441;DHT22;35317;51.978;6.296;2023-05-17T21:20:54;9.70;69.60
49441;DHT22;35317;51.978;6.296;2023-05-17T21:25:55;9.60;70.00
49441;DHT22;35317;51.978;6.296;2023-05-17T21:30:56;9.50;70.60
49441;DHT22;35317;51.978;6.296;2023-05-17T21:35:57;9.30;71.00
49441;DHT22;35317;51.978;6.296;2023-05-17T21:40:58;9.20;71.40
49441;DHT22;35317;51.978;6.296;2023-05-17T21:45:59;9.10;71.90
49441;DHT22;35317;51.978;6.296;2023-05-17T21:50:59;9.00;72.30
49441;DHT22;35317;51.978;6.296;2023-05-17T21:56:00;8.90;72.70
49441;DHT22;35317;51.978;6.296;2023-05-17T22:01:01;8.80;73.00
49441;DHT22;35317;51.978;6.296;2023-05-17T22:06:02;8.80;73.30
49441;DHT22;35317;51.978;6.296;2023-05-17T22:11:03;8.70;73.60
49441;DHT22;35317;51.978;6.296;2023-05-17T22:16:05;8.60;74.00
49441;DHT22;35317;51.978;6.296;2023-05-17T22:21:07;8.60;74.20
49441;DHT22;35317;51.978;6.296;2023-05-17T22:26:08;8.50;74.50
49441;DHT22;35317;51.978;6.296;2023-05-17T22:31:09;8.30;74.70
49441;DHT22;35317;51.978;6.296;2023-05-17T22:36:10;8.30;75.10
49441;DHT22;35317;51.978;6.296;2023-05-17T22:41:18;8.20;75.40
49441;DHT22;35317;51.978;6.296;2023-05-17T22:46:19;8.10;75.80
49441;DHT22;35317;51.978;6.296;2023-05-17T22:51:20;8.00;76.60
49441;DHT22;35317;51.978;6.296;2023-05-17T22:56:21;7.90;76.30
49441;DHT22;35317;51.978;6.296;2023-05-17T23:01:22;7.80;76.60
49441;DHT22;35317;51.978;6.296;2023-05-17T23:06:23;7.70;76.90
49441;DHT22;35317;51.978;6.296;2023-05-17T23:11:25;7.60;77.40
49441;DHT22;35317;51.978;6.296;2023-05-17T23:16:27;7.50;77.60
49441;DHT22;35317;51.978;6.296;2023-05-17T23:21:28;7.50;78.10
49441;DHT22;35317;51.978;6.296;2023-05-17T23:26:33;7.40;78.30
49441;DHT22;35317;51.978;6.296;2023-05-17T23:31:34;7.30;78.70
49441;DHT22;35317;51.978;6.296;2023-05-17T23:36:34;7.20;79.10
49441;DHT22;35317;51.978;6.296;2023-05-17T23:41:35;7.10;79.40
49441;DHT22;35317;51.978;6.296;2023-05-17T23:46:39;7.10;79.80
49441;DHT22;35317;51.978;6.296;2023-05-17T23:51:43;7.00;80.10
49441;DHT22;35317;51.978;6.296;2023-05-17T23:56:45;6.90;81.00
